createdAt,value
2019-02-27T00:01:19.707Z,7.17
2019-02-27T00:03:49.262Z,7.20
2019-02-27T00:06:18.510Z,7.15
2019-02-27T00:09:03.055Z,7.13
2019-02-27T00:11:33.717Z,7.21
2019-02-27T00:14:05.527Z,7.26
2019-02-27T00:16:34.793Z,7.21
2019-02-27T00:19:06.430Z,7.18
2019-02-27T00:21:35.697Z,7.13
2019-02-27T00:24:04.925Z,7.10
2019-02-27T00:26:36.371Z,7.08
2019-02-27T00:29:07.031Z,7.01
2019-02-27T00:31:36.569Z,6.96
2019-02-27T00:34:05.799Z,6.87
2019-02-27T00:36:44.835Z,6.76
2019-02-27T00:39:12.066Z,6.74
2019-02-27T00:41:43.092Z,6.71
2019-02-27T00:44:19.380Z,6.80
2019-02-27T00:46:50.413Z,6.88
2019-02-27T00:49:19.815Z,6.83
2019-02-27T00:51:50.108Z,6.82
2019-02-27T00:54:23.523Z,6.80
2019-02-27T00:56:55.540Z,6.69
2019-02-27T00:59:27.293Z,6.67
2019-02-27T01:01:56.580Z,6.63
2019-02-27T01:04:28.643Z,6.66
2019-02-27T01:06:59.977Z,6.80
2019-02-27T01:09:29.206Z,6.81
2019-02-27T01:11:58.744Z,6.76
2019-02-27T01:14:27.972Z,6.87
2019-02-27T01:16:57.338Z,6.88
2019-02-27T01:19:26.889Z,6.79
2019-02-27T01:21:58.332Z,6.69
2019-02-27T01:24:31.426Z,6.44
2019-02-27T01:27:05.765Z,6.24
2019-02-27T01:29:34.982Z,6.20
2019-02-27T01:32:06.298Z,6.13
2019-02-27T01:34:35.526Z,6.08
2019-02-27T01:37:07.447Z,6.05
2019-02-27T01:39:37.830Z,5.92
2019-02-27T01:42:09.114Z,5.83
2019-02-27T01:44:43.960Z,5.72
2019-02-27T01:47:14.174Z,5.56
2019-02-27T01:49:43.421Z,5.35
2019-02-27T01:52:14.312Z,5.25
2019-02-27T01:54:46.103Z,5.06
2019-02-27T01:57:18.675Z,4.96
2019-02-27T01:59:50.273Z,5.00
2019-02-27T02:02:20.608Z,4.95
2019-02-27T02:04:52.919Z,5.00
2019-02-27T02:07:21.448Z,4.99
2019-02-27T02:09:55.096Z,5.05
2019-02-27T02:12:31.598Z,5.01
2019-02-27T02:15:37.131Z,5.03
2019-02-27T02:19:05.978Z,5.03
2019-02-27T02:22:18.475Z,4.95
2019-02-27T02:25:36.432Z,4.89
2019-02-27T02:28:33.638Z,4.98
2019-02-27T02:31:34.097Z,4.94
2019-02-27T02:34:40.912Z,4.83
2019-02-27T02:37:47.934Z,4.88
2019-02-27T02:41:28.926Z,4.95
2019-02-27T02:44:57.236Z,4.94
2019-02-27T02:47:58.398Z,4.91
2019-02-27T02:51:12.464Z,5.06
2019-02-27T02:54:20.143Z,5.08
2019-02-27T02:57:37.076Z,5.08
2019-02-27T03:00:37.919Z,5.06
2019-02-27T03:03:37.041Z,4.93
2019-02-27T03:06:35.095Z,4.83
2019-02-27T03:09:35.736Z,4.73
2019-02-27T03:12:31.211Z,4.62
2019-02-27T03:15:56.861Z,4.59
2019-02-27T03:18:53.940Z,4.55
2019-02-27T03:22:13.330Z,4.47
2019-02-27T03:25:19.327Z,4.41
2019-02-27T03:28:40.540Z,4.30
2019-02-27T03:31:57.846Z,4.13
2019-02-27T03:35:01.369Z,4.06
2019-02-27T03:37:49.490Z,3.96
2019-02-27T03:41:10.659Z,3.89
2019-02-27T03:44:21.872Z,3.71
2019-02-27T03:47:16.782Z,3.68
2019-02-27T03:50:27.197Z,3.64
2019-02-27T03:53:47.969Z,3.61
2019-02-27T03:56:53.478Z,3.56
2019-02-27T03:59:58.823Z,3.48
2019-02-27T04:02:52.843Z,3.45
2019-02-27T04:05:56.118Z,3.48
2019-02-27T04:09:00.388Z,3.52
2019-02-27T04:11:31.776Z,3.53
2019-02-27T04:14:05.547Z,3.48
2019-02-27T04:16:37.892Z,3.50
2019-02-27T04:19:06.269Z,3.45
2019-02-27T04:21:35.511Z,3.47
2019-02-27T04:24:05.488Z,3.45
2019-02-27T04:26:35.119Z,3.39
2019-02-27T04:29:07.598Z,3.37
2019-02-27T04:31:39.770Z,3.45
2019-02-27T04:34:10.729Z,3.43
2019-02-27T04:36:39.972Z,3.41
2019-02-27T04:39:10.188Z,3.36
2019-02-27T04:41:45.013Z,3.24
2019-02-27T04:44:14.247Z,3.19
2019-02-27T04:46:46.508Z,3.01
2019-02-27T04:49:16.771Z,3.04
2019-02-27T04:51:48.085Z,2.99
2019-02-27T04:54:16.986Z,2.77
2019-02-27T04:56:47.437Z,2.81
2019-02-27T04:59:20.317Z,2.88
2019-02-27T05:01:53.728Z,2.69
2019-02-27T05:04:27.028Z,2.71
2019-02-27T05:06:56.651Z,2.70
2019-02-27T05:09:26.952Z,2.67
2019-02-27T05:11:56.185Z,2.55
2019-02-27T05:14:27.374Z,2.55
2019-02-27T05:16:57.114Z,2.47
2019-02-27T05:19:26.337Z,2.55
2019-02-27T05:21:55.566Z,2.56
2019-02-27T05:24:27.967Z,2.58
2019-02-27T05:27:06.401Z,2.55
2019-02-27T05:29:37.542Z,2.42
2019-02-27T05:32:06.962Z,2.35
2019-02-27T05:34:40.066Z,2.39
2019-02-27T05:37:09.313Z,2.43
2019-02-27T05:39:38.532Z,2.47
2019-02-27T05:42:13.147Z,2.51
2019-02-27T05:44:43.313Z,2.54
2019-02-27T05:47:15.805Z,2.52
2019-02-27T05:49:48.860Z,2.44
2019-02-27T05:52:19.233Z,2.53
2019-02-27T05:54:50.942Z,2.55
2019-02-27T05:57:23.204Z,2.56
2019-02-27T05:59:51.910Z,2.52
2019-02-27T06:02:25.458Z,2.50
2019-02-27T06:04:59.053Z,2.56
2019-02-27T06:07:28.492Z,2.52
2019-02-27T06:09:59.738Z,2.43
2019-02-27T06:12:30.959Z,2.42
2019-02-27T06:15:03.509Z,2.49
2019-02-27T06:17:42.928Z,2.52
2019-02-27T06:20:07.906Z,2.54
2019-02-27T06:22:37.662Z,2.53
2019-02-27T06:25:07.571Z,2.50
2019-02-27T06:27:39.958Z,2.60
2019-02-27T06:30:12.206Z,2.58
2019-02-27T06:32:41.550Z,2.62
2019-02-27T06:35:12.141Z,2.79
2019-02-27T06:37:50.441Z,2.88
2019-02-27T06:40:21.222Z,2.98
2019-02-27T06:43:03.040Z,3.08
2019-02-27T06:45:32.884Z,3.35
2019-02-27T06:48:02.417Z,3.55
2019-02-27T06:50:32.536Z,3.83
2019-02-27T06:53:03.445Z,3.85
2019-02-27T06:55:33.903Z,4.00
2019-02-27T06:58:07.348Z,4.22
2019-02-27T07:00:37.320Z,4.18
2019-02-27T07:03:08.977Z,4.46
2019-02-27T07:05:39.631Z,4.53
2019-02-27T07:08:11.382Z,4.72
2019-02-27T07:10:42.179Z,5.16
2019-02-27T07:13:22.121Z,5.50
2019-02-27T07:15:55.619Z,5.78
2019-02-27T07:18:25.755Z,6.32
2019-02-27T07:20:58.501Z,6.84
2019-02-27T07:23:28.866Z,7.39
2019-02-27T07:26:05.589Z,9.27
2019-02-27T07:28:34.831Z,10.78
2019-02-27T07:31:04.624Z,12.33
2019-02-27T07:33:34.481Z,13.74
2019-02-27T07:36:05.550Z,14.32
2019-02-27T07:38:34.823Z,14.13
2019-02-27T07:41:05.020Z,15.52
2019-02-27T07:43:35.467Z,17.24
2019-02-27T07:46:06.898Z,18.90
2019-02-27T07:48:37.718Z,20.20
2019-02-27T07:51:09.833Z,21.51
2019-02-27T07:53:42.045Z,22.50
2019-02-27T07:56:13.415Z,24.33
2019-02-27T07:58:42.899Z,25.67
2019-02-27T08:01:14.339Z,26.51
2019-02-27T08:03:46.901Z,27.31
2019-02-27T08:06:16.781Z,27.62
2019-02-27T08:08:48.564Z,27.17
2019-02-27T08:11:21.621Z,27.57
2019-02-27T08:13:52.006Z,28.32
2019-02-27T08:16:22.711Z,28.49
2019-02-27T08:18:51.970Z,28.44
2019-02-27T08:21:21.234Z,29.20
2019-02-27T08:23:55.122Z,29.58
2019-02-27T08:26:24.439Z,29.95
2019-02-27T08:28:58.364Z,31.20
2019-02-27T08:31:32.099Z,31.39
2019-02-27T08:34:01.505Z,31.91
2019-02-27T08:36:31.924Z,32.42
2019-02-27T08:39:01.150Z,31.98
2019-02-27T08:41:32.185Z,32.18
2019-02-27T08:44:03.555Z,31.38
2019-02-27T08:46:33.970Z,31.15
2019-02-27T08:49:07.221Z,30.45
2019-02-27T08:51:39.802Z,29.92
2019-02-27T08:54:09.209Z,29.30
2019-02-27T08:56:38.456Z,30.37
2019-02-27T08:59:09.074Z,28.79
2019-02-27T09:01:38.358Z,29.08
2019-02-27T09:04:11.435Z,29.31
2019-02-27T09:06:42.739Z,27.79
2019-02-27T09:09:14.984Z,27.17
2019-02-27T09:11:44.852Z,27.99
2019-02-27T09:14:14.508Z,29.34
2019-02-27T09:16:44.006Z,29.41
2019-02-27T09:19:15.899Z,30.48
2019-02-27T09:21:45.605Z,30.53
2019-02-27T09:24:15.400Z,29.99
2019-02-27T09:26:46.191Z,30.71
2019-02-27T09:29:18.368Z,30.77
2019-02-27T09:31:51.372Z,30.22
2019-02-27T09:34:40.655Z,29.72
2019-02-27T09:37:22.852Z,29.49
2019-02-27T09:39:54.592Z,30.55
2019-02-27T09:42:27.951Z,29.27
2019-02-27T09:45:08.255Z,29.02
2019-02-27T09:47:39.870Z,29.79
2019-02-27T09:50:14.712Z,29.58
2019-02-27T09:52:52.071Z,28.76
2019-02-27T09:55:22.035Z,27.23
2019-02-27T09:57:55.879Z,25.77
2019-02-27T10:00:39.416Z,24.17
2019-02-27T10:03:09.601Z,23.56
2019-02-27T10:05:40.896Z,23.89
2019-02-27T10:08:13.803Z,25.02
2019-02-27T10:10:45.767Z,24.85
2019-02-27T10:13:16.032Z,24.64
2019-02-27T10:15:47.163Z,25.86
2019-02-27T10:18:21.862Z,26.56
2019-02-27T10:20:59.739Z,25.54
2019-02-27T10:23:31.161Z,25.36
2019-02-27T10:26:02.657Z,24.73
2019-02-27T10:28:38.804Z,24.15
2019-02-27T10:31:06.875Z,24.21
2019-02-27T10:33:48.306Z,25.14
2019-02-27T10:36:18.391Z,23.71
2019-02-27T10:38:47.921Z,23.57
2019-02-27T10:41:18.794Z,23.12
2019-02-27T10:44:03.690Z,23.25
2019-02-27T10:46:35.718Z,22.98
2019-02-27T10:49:04.969Z,22.19
2019-02-27T10:51:35.263Z,22.82
2019-02-27T10:54:07.550Z,23.10
2019-02-27T10:56:37.936Z,22.22
2019-02-27T10:59:09.966Z,22.76
2019-02-27T11:01:40.368Z,22.13
2019-02-27T11:04:11.249Z,22.56
2019-02-27T11:06:53.438Z,22.49
2019-02-27T11:09:27.139Z,21.74
2019-02-27T11:11:56.695Z,21.88
2019-02-27T11:14:25.910Z,22.70
2019-02-27T11:17:02.684Z,21.47
2019-02-27T11:19:30.722Z,21.48
2019-02-27T11:22:03.451Z,21.44
2019-02-27T11:24:33.182Z,20.97
2019-02-27T11:27:07.459Z,20.52
2019-02-27T11:29:37.407Z,19.83
2019-02-27T11:32:08.222Z,19.96
2019-02-27T11:34:38.685Z,19.76
2019-02-27T11:37:12.979Z,19.78
2019-02-27T11:39:39.276Z,19.78
2019-02-27T11:42:16.025Z,19.67
2019-02-27T11:44:49.399Z,19.92
2019-02-27T11:47:19.738Z,20.24
2019-02-27T11:49:48.963Z,20.15
2019-02-27T11:52:18.207Z,19.82
2019-02-27T11:54:48.247Z,19.73
2019-02-27T11:57:17.858Z,20.03
2019-02-27T11:59:48.415Z,20.44
2019-02-27T12:02:28.626Z,20.17
2019-02-27T12:04:55.370Z,20.37
2019-02-27T12:07:26.491Z,20.66
2019-02-27T12:09:57.730Z,21.07
2019-02-27T12:12:27.767Z,20.56
2019-02-27T12:14:57.026Z,20.69
2019-02-27T12:17:27.605Z,20.86
2019-02-27T12:20:00.708Z,21.14
2019-02-27T12:22:32.925Z,21.63
2019-02-27T12:25:07.275Z,21.69
2019-02-27T12:27:48.565Z,21.50
2019-02-27T12:30:11.551Z,21.16
2019-02-27T12:32:41.242Z,20.61
2019-02-27T12:35:18.189Z,20.01
2019-02-27T12:37:49.139Z,19.74
2019-02-27T12:40:24.083Z,19.93
2019-02-27T12:42:54.005Z,20.26
2019-02-27T12:45:26.494Z,20.19
2019-02-27T12:47:57.222Z,20.05
2019-02-27T12:50:31.223Z,19.81
2019-02-27T12:53:00.757Z,19.05
2019-02-27T12:55:30.377Z,19.05
2019-02-27T12:57:59.607Z,19.48
2019-02-27T13:00:30.410Z,19.46
2019-02-27T13:03:02.651Z,19.46
2019-02-27T13:05:33.093Z,20.07
2019-02-27T13:08:03.674Z,20.19
2019-02-27T13:10:43.653Z,20.36
2019-02-27T13:13:19.964Z,20.37
2019-02-27T13:15:52.277Z,19.86
2019-02-27T13:18:21.676Z,19.75
2019-02-27T13:20:54.732Z,20.31
2019-02-27T13:23:24.183Z,20.73
2019-02-27T13:26:02.392Z,21.23
2019-02-27T13:28:31.612Z,21.28
2019-02-27T13:31:02.610Z,21.04
2019-02-27T13:33:32.979Z,21.10
2019-02-27T13:36:02.800Z,21.45
2019-02-27T13:38:34.505Z,22.12
2019-02-27T13:41:07.740Z,21.82
2019-02-27T13:43:36.813Z,21.04
2019-02-27T13:46:06.067Z,20.94
2019-02-27T13:48:39.812Z,20.63
2019-02-27T13:51:09.253Z,20.69
2019-02-27T13:53:39.148Z,21.28
2019-02-27T13:56:11.553Z,21.33
2019-02-27T13:58:45.666Z,20.91
2019-02-27T14:01:19.913Z,20.96
2019-02-27T14:03:49.158Z,21.37
2019-02-27T14:06:21.175Z,21.94
2019-02-27T14:08:51.910Z,22.00
2019-02-27T14:11:24.886Z,21.67
2019-02-27T14:13:56.457Z,21.76
2019-02-27T14:16:26.895Z,21.52
2019-02-27T14:19:07.228Z,21.19
2019-02-27T14:21:36.748Z,20.68
2019-02-27T14:24:06.893Z,20.79
2019-02-27T14:26:41.486Z,21.26
2019-02-27T14:29:12.657Z,21.50
2019-02-27T14:31:44.180Z,21.51
2019-02-27T14:34:15.038Z,21.51
2019-02-27T14:36:46.356Z,21.74
2019-02-27T14:39:15.653Z,21.93
2019-02-27T14:41:51.347Z,21.64
2019-02-27T14:44:21.345Z,21.50
2019-02-27T14:46:59.886Z,21.89
2019-02-27T14:49:31.228Z,22.18
2019-02-27T14:52:01.530Z,22.17
2019-02-27T14:54:34.509Z,21.92
2019-02-27T14:57:16.752Z,21.52
2019-02-27T14:59:55.364Z,21.51
2019-02-27T15:02:27.684Z,21.54
2019-02-27T15:05:00.050Z,21.08
2019-02-27T15:07:31.532Z,21.20
2019-02-27T15:10:14.756Z,21.52
2019-02-27T15:12:44.294Z,21.39
2019-02-27T15:15:16.829Z,21.74
2019-02-27T15:17:47.802Z,21.91
2019-02-27T15:20:19.348Z,21.54
2019-02-27T15:22:55.552Z,21.06
2019-02-27T15:25:27.426Z,20.21
2019-02-27T15:27:59.954Z,19.36
2019-02-27T15:30:35.188Z,18.74
2019-02-27T15:33:07.320Z,18.22
2019-02-27T15:35:38.120Z,17.71
2019-02-27T15:38:12.353Z,17.51
2019-02-27T15:40:46.889Z,17.23
2019-02-27T15:43:17.338Z,16.88
2019-02-27T15:45:51.736Z,16.52
2019-02-27T15:48:25.927Z,16.37
2019-02-27T15:50:57.453Z,16.80
2019-02-27T15:53:28.494Z,17.22
2019-02-27T15:56:01.051Z,17.29
2019-02-27T15:58:32.687Z,17.16
2019-02-27T16:01:02.652Z,17.00
2019-02-27T16:03:42.071Z,16.92
2019-02-27T16:06:15.734Z,16.84
2019-02-27T16:08:46.169Z,16.67
2019-02-27T16:11:17.388Z,16.45
2019-02-27T16:13:49.128Z,16.39
2019-02-27T16:16:23.322Z,16.11
2019-02-27T16:18:52.973Z,16.03
2019-02-27T16:21:24.372Z,15.91
2019-02-27T16:23:55.196Z,15.70
2019-02-27T16:26:27.181Z,15.51
2019-02-27T16:28:58.171Z,15.25
2019-02-27T16:31:27.679Z,14.99
2019-02-27T16:34:00.743Z,14.76
2019-02-27T16:36:36.273Z,14.56
2019-02-27T16:39:12.560Z,14.42
2019-02-27T16:41:46.507Z,14.28
2019-02-27T16:44:16.074Z,14.14
2019-02-27T16:47:06.042Z,13.96
2019-02-27T16:49:35.271Z,13.80
2019-02-27T16:52:09.913Z,13.69
2019-02-27T16:54:39.124Z,13.60
2019-02-27T16:57:12.507Z,13.52
2019-02-27T16:59:45.548Z,13.44
2019-02-27T17:02:14.286Z,13.38
2019-02-27T17:04:45.813Z,13.26
2019-02-27T17:07:16.523Z,13.18
2019-02-27T17:09:48.044Z,13.03
2019-02-27T17:12:21.529Z,12.88
2019-02-27T17:14:55.424Z,12.76
2019-02-27T17:17:26.096Z,12.64
2019-02-27T17:19:58.364Z,12.50
2019-02-27T17:22:30.306Z,12.42
2019-02-27T17:25:01.258Z,12.40
2019-02-27T17:27:36.550Z,12.30
2019-02-27T17:30:14.474Z,12.27
2019-02-27T17:32:43.703Z,12.21
2019-02-27T17:35:15.461Z,12.10
2019-02-27T17:37:46.225Z,12.02
2019-02-27T17:40:18.173Z,11.89
2019-02-27T17:42:53.549Z,11.90
2019-02-27T17:45:26.995Z,11.86
2019-02-27T17:47:56.829Z,11.79
2019-02-27T17:50:28.465Z,11.67
2019-02-27T17:52:58.031Z,11.58
2019-02-27T17:55:31.773Z,11.47
2019-02-27T17:58:04.791Z,11.38
2019-02-27T18:00:39.171Z,11.25
2019-02-27T18:03:08.781Z,11.13
2019-02-27T18:05:39.208Z,11.04
2019-02-27T18:08:09.686Z,10.97
2019-02-27T18:10:39.929Z,10.90
2019-02-27T18:13:19.095Z,10.83
2019-02-27T18:15:53.283Z,10.81
2019-02-27T18:18:25.211Z,10.78
2019-02-27T18:20:56.725Z,10.73
2019-02-27T18:23:26.916Z,10.69
2019-02-27T18:25:56.341Z,10.56
2019-02-27T18:28:32.756Z,10.44
2019-02-27T18:30:59.698Z,10.37
2019-02-27T18:33:31.555Z,10.30
2019-02-27T18:36:04.803Z,10.22
2019-02-27T18:38:34.861Z,10.14
2019-02-27T18:41:04.141Z,10.11
2019-02-27T18:43:34.276Z,10.01
2019-02-27T18:46:03.489Z,9.90
2019-02-27T18:48:36.903Z,9.82
2019-02-27T18:51:10.096Z,9.80
2019-02-27T18:53:41.124Z,9.70
2019-02-27T18:56:12.534Z,9.63
2019-02-27T18:58:42.667Z,9.55
2019-02-27T19:01:11.891Z,9.46
2019-02-27T19:03:44.580Z,9.39
2019-02-27T19:06:14.072Z,9.36
2019-02-27T19:08:45.868Z,9.27
2019-02-27T19:11:33.476Z,9.02
2019-02-27T19:14:05.837Z,8.74
2019-02-27T19:16:34.015Z,8.66
2019-02-27T19:19:03.255Z,8.57
2019-02-27T19:21:33.909Z,8.39
2019-02-27T19:24:08.266Z,8.21
2019-02-27T19:26:38.329Z,7.93
2019-02-27T19:29:08.150Z,7.70
2019-02-27T19:31:39.203Z,7.55
2019-02-27T19:34:10.974Z,7.60
2019-02-27T19:36:50.304Z,7.74
2019-02-27T19:39:21.713Z,7.84
2019-02-27T19:41:51.876Z,7.91
2019-02-27T19:44:21.103Z,7.86
2019-02-27T19:46:52.063Z,7.91
2019-02-27T19:49:21.913Z,7.92
2019-02-27T19:51:54.915Z,7.94
2019-02-27T19:54:25.362Z,7.97
2019-02-27T19:56:55.980Z,7.93
2019-02-27T19:59:25.702Z,7.91
2019-02-27T20:01:57.452Z,7.90
2019-02-27T20:04:29.289Z,7.90
2019-02-27T20:07:01.836Z,7.84
2019-02-27T20:09:31.941Z,7.88
2019-02-27T20:12:04.181Z,7.87
2019-02-27T20:14:36.709Z,7.77
2019-02-27T20:17:07.284Z,7.75
2019-02-27T20:19:37.681Z,7.76
2019-02-27T20:22:07.772Z,7.83
2019-02-27T20:24:48.007Z,7.79
2019-02-27T20:27:21.131Z,7.71
2019-02-27T20:29:55.490Z,7.71
2019-02-27T20:32:28.389Z,7.59
2019-02-27T20:34:56.462Z,7.56
2019-02-27T20:37:47.560Z,7.49
2019-02-27T20:40:20.245Z,7.53
2019-02-27T20:42:53.781Z,7.50
2019-02-27T20:45:21.243Z,7.41
2019-02-27T20:47:50.819Z,7.35
2019-02-27T20:50:40.067Z,7.37
2019-02-27T20:53:12.628Z,7.28
2019-02-27T20:55:42.350Z,7.28
2019-02-27T20:58:16.209Z,7.18
2019-02-27T21:00:43.471Z,7.07
2019-02-27T21:03:12.959Z,7.13
2019-02-27T21:05:51.442Z,7.11
2019-02-27T21:08:25.597Z,7.11
2019-02-27T21:10:56.360Z,7.02
2019-02-27T21:13:29.057Z,6.90
2019-02-27T21:15:59.494Z,6.85
2019-02-27T21:18:33.399Z,6.78
2019-02-27T21:21:05.033Z,6.66
2019-02-27T21:23:37.299Z,6.66
2019-02-27T21:26:09.549Z,6.61
2019-02-27T21:28:44.997Z,6.48
2019-02-27T21:31:16.313Z,6.30
2019-02-27T21:33:48.402Z,6.13
2019-02-27T21:36:20.455Z,6.07
2019-02-27T21:38:51.487Z,6.15
2019-02-27T21:41:21.163Z,6.20
2019-02-27T21:43:53.287Z,6.06
2019-02-27T21:46:23.962Z,6.13
2019-02-27T21:48:53.214Z,6.00
2019-02-27T21:51:24.988Z,5.99
2019-02-27T21:53:55.333Z,5.87
2019-02-27T21:56:26.050Z,5.85
2019-02-27T21:58:56.910Z,5.85
2019-02-27T22:01:29.586Z,5.88
2019-02-27T22:04:01.508Z,5.88
2019-02-27T22:06:41.144Z,5.85
2019-02-27T22:09:21.141Z,5.79
2019-02-27T22:11:51.260Z,5.83
2019-02-27T22:14:21.972Z,5.80
2019-02-27T22:16:56.128Z,5.83
2019-02-27T22:19:26.123Z,5.80
2019-02-27T22:21:58.551Z,5.69
2019-02-27T22:24:31.504Z,5.69
2019-02-27T22:27:09.277Z,5.65
2019-02-27T22:29:42.482Z,5.58
2019-02-27T22:32:15.391Z,5.56
2019-02-27T22:34:47.653Z,5.45
2019-02-27T22:37:20.707Z,5.45
2019-02-27T22:39:53.488Z,5.43
2019-02-27T22:42:23.922Z,5.44
2019-02-27T22:45:04.267Z,5.44
2019-02-27T22:47:35.711Z,5.33
2019-02-27T23:03:11.812Z,4.80
2019-02-27T23:05:41.097Z,4.84
2019-02-27T23:08:10.626Z,4.90
2019-02-27T23:10:39.877Z,4.88
2019-02-27T23:13:12.811Z,4.88
2019-02-27T23:15:41.493Z,4.74
2019-02-27T23:18:11.047Z,4.69
2019-02-27T23:20:40.400Z,4.79
2019-02-27T23:23:09.720Z,4.68
2019-02-27T23:25:38.967Z,4.63
2019-02-27T23:28:08.315Z,4.61
2019-02-27T23:30:37.974Z,4.50
2019-02-27T23:33:07.198Z,4.56
2019-02-27T23:35:36.440Z,4.52
2019-02-27T23:38:05.826Z,4.53
2019-02-27T23:40:36.274Z,4.54
2019-02-27T23:43:05.494Z,4.43
2019-02-27T23:45:34.738Z,4.37
2019-02-27T23:48:04.063Z,4.41
2019-02-27T23:50:33.312Z,4.33
2019-02-27T23:53:02.562Z,4.38
2019-02-27T23:55:31.880Z,4.42
2019-02-27T23:58:01.099Z,4.38
